Port Bannatyne, United Kingdom
Current Conditions -  °F | °C
As of 7:20 PM on Thursday 27 Nov 2014 (Local Time) from EGPF Reporting Station
Overcast Overcast  
Wind Chill: 44°   Ceiling: 1800
Heat Index: 46°   Visibility: 4mi
Dew Point: 46°   Wind: 5mph
Humidity: 100%   Direction: 130°SE
Pressure: 29.59"   Gusts: NA
Location:  55.86°N, 5.07°W
Report Text: EGPF 271920Z AUTO 13004KT 090V160 7000 FEW006 BKN018 OVC038 08/08 Q1002
Loading
Personal Weather Stations






























Interactive Weather Map New forecast layout! Learn more

10-Day Weather Forecast

Advertisements
Track Severe Weather on mobile